createdAt,value
2019-04-03T00:00:11.023Z,4.77
2019-04-03T00:02:38.387Z,5.60
2019-04-03T00:05:05.908Z,4.70
2019-04-03T00:07:33.765Z,4.87
2019-04-03T00:10:02.777Z,4.90
2019-04-03T00:12:30.638Z,4.80
2019-04-03T00:15:17.698Z,5.30
2019-04-03T00:17:45.966Z,5.23
2019-04-03T00:20:13.668Z,4.97
2019-04-03T00:22:41.227Z,5.53
2019-04-03T00:25:08.987Z,6.00
2019-04-03T00:27:36.412Z,5.63
2019-04-03T00:30:04.795Z,6.00
2019-04-03T00:32:32.227Z,5.07
2019-04-03T00:34:59.726Z,5.53
2019-04-03T00:37:27.227Z,5.93
2019-04-03T00:39:54.744Z,5.03
2019-04-03T00:42:24.065Z,5.53
2019-04-03T00:44:54.026Z,6.07
2019-04-03T00:47:20.955Z,6.23
2019-04-03T00:49:48.344Z,5.30
2019-04-03T00:52:15.678Z,5.67
2019-04-03T00:54:43.074Z,5.47
2019-04-03T00:57:10.557Z,5.83
2019-04-03T00:59:37.950Z,6.00
2019-04-03T01:02:05.428Z,5.63
2019-04-03T01:04:33.038Z,5.73
2019-04-03T01:07:00.437Z,5.57
2019-04-03T01:09:29.793Z,6.00
2019-04-03T01:11:57.081Z,5.53
2019-04-03T01:14:24.436Z,5.73
2019-04-03T01:16:51.898Z,6.03
2019-04-03T01:19:19.208Z,5.57
2019-04-03T01:21:46.627Z,5.77
2019-04-03T01:24:14.001Z,7.13
2019-04-03T01:26:41.398Z,4.67
2019-04-03T01:29:08.811Z,5.43
2019-04-03T01:31:36.165Z,5.23
2019-04-03T01:34:03.809Z,5.73
2019-04-03T01:36:31.105Z,5.90
2019-04-03T01:38:58.644Z,5.07
2019-04-03T01:41:26.090Z,5.60
2019-04-03T01:43:54.259Z,5.33
2019-04-03T01:46:21.669Z,5.27
2019-04-03T01:48:49.221Z,5.80
2019-04-03T01:51:16.621Z,5.00
2019-04-03T01:53:44.144Z,5.77
2019-04-03T01:56:11.594Z,4.80
2019-04-03T01:58:39.083Z,6.20
2019-04-03T02:01:08.039Z,5.00
2019-04-03T02:03:35.725Z,6.20
2019-04-03T02:06:03.105Z,5.70
2019-04-03T02:08:30.558Z,4.97
2019-04-03T02:10:57.964Z,6.60
2019-04-03T02:13:25.288Z,5.43
2019-04-03T02:15:52.954Z,5.37
2019-04-03T02:18:20.798Z,5.20
2019-04-03T02:20:48.217Z,5.77
2019-04-03T02:23:15.529Z,5.40
2019-04-03T02:25:42.821Z,5.90
2019-04-03T02:28:10.133Z,6.40
2019-04-03T02:30:37.544Z,6.47
2019-04-03T02:33:04.826Z,5.90
2019-04-03T02:35:32.439Z,6.33
2019-04-03T02:37:59.866Z,6.17
2019-04-03T02:40:29.277Z,5.73
2019-04-03T02:42:56.812Z,5.60
2019-04-03T02:45:24.931Z,6.27
2019-04-03T02:47:52.583Z,5.83
2019-04-03T02:50:23.769Z,5.40
2019-04-03T02:52:51.586Z,6.13
2019-04-03T02:55:19.009Z,5.90
2019-04-03T02:57:48.426Z,6.50
2019-04-03T03:00:16.259Z,5.80
2019-04-03T03:02:45.130Z,5.93
2019-04-03T03:05:13.027Z,5.93
2019-04-03T03:07:40.831Z,5.93
2019-04-03T03:10:09.530Z,5.93
2019-04-03T03:12:38.118Z,5.87
2019-04-03T03:15:06.153Z,5.73
2019-04-03T03:17:34.358Z,5.63
2019-04-03T03:20:06.982Z,5.93
2019-04-03T03:22:34.785Z,5.93
2019-04-03T03:25:02.597Z,6.10
2019-04-03T03:27:30.356Z,5.93
2019-04-03T03:29:59.744Z,6.40
2019-04-03T03:32:33.402Z,6.07
2019-04-03T03:35:09.523Z,7.03
2019-04-03T03:37:26.654Z,7.03
2019-04-03T03:39:54.649Z,6.40
2019-04-03T03:42:22.985Z,6.07
2019-04-03T03:44:52.283Z,5.90
2019-04-03T03:47:20.320Z,6.20
2019-04-03T03:49:50.084Z,6.50
2019-04-03T03:52:18.035Z,5.83
2019-04-03T03:54:49.720Z,6.63
2019-04-03T03:57:15.610Z,6.77
2019-04-03T03:59:43.135Z,6.40
2019-04-03T04:02:10.542Z,6.53
2019-04-03T04:04:38.526Z,6.13
2019-04-03T04:07:06.084Z,5.80
2019-04-03T04:09:33.604Z,6.30
2019-04-03T04:12:04.570Z,6.53
2019-04-03T04:14:30.486Z,5.67
2019-04-03T04:16:57.927Z,6.00
2019-04-03T04:19:29.535Z,6.50
2019-04-03T04:21:56.200Z,6.20
2019-04-03T04:24:24.474Z,6.17
2019-04-03T04:26:54.123Z,6.30
2019-04-03T04:29:23.131Z,6.37
2019-04-03T04:31:50.489Z,5.63
2019-04-03T04:34:19.240Z,7.40
2019-04-03T04:36:46.928Z,5.80
2019-04-03T04:39:14.196Z,6.53
2019-04-03T04:41:41.642Z,6.00
2019-04-03T04:44:09.975Z,6.53
2019-04-03T04:46:37.790Z,6.23
2019-04-03T04:49:05.145Z,6.23
2019-04-03T04:51:32.537Z,6.20
2019-04-03T04:54:00.399Z,7.53
2019-04-03T04:56:27.847Z,7.27
2019-04-03T04:58:55.807Z,6.87
2019-04-03T05:01:23.122Z,6.90
2019-04-03T05:03:53.429Z,6.90
2019-04-03T05:06:20.209Z,6.93
2019-04-03T05:08:47.648Z,6.90
2019-04-03T05:11:15.163Z,6.43
2019-04-03T05:13:42.563Z,6.53
2019-04-03T05:16:09.973Z,6.53
2019-04-03T05:18:37.458Z,6.00
2019-04-03T05:21:04.694Z,6.73
2019-04-03T05:23:32.250Z,7.10
2019-04-03T05:26:01.924Z,6.80
2019-04-03T05:28:29.112Z,7.30
2019-04-03T05:30:56.560Z,7.43
2019-04-03T05:33:24.246Z,6.87
2019-04-03T05:35:51.672Z,7.10
2019-04-03T05:38:21.711Z,7.17
2019-04-03T05:40:48.429Z,8.20
2019-04-03T05:43:15.955Z,7.17
2019-04-03T05:45:43.440Z,8.07
2019-04-03T05:48:13.385Z,6.93
2019-04-03T05:50:40.160Z,7.23
2019-04-03T05:53:08.001Z,7.77
2019-04-03T05:55:35.572Z,7.10
2019-04-03T05:58:03.146Z,6.80
2019-04-03T06:00:30.566Z,7.00
2019-04-03T06:02:58.463Z,7.87
2019-04-03T06:05:25.841Z,7.60
2019-04-03T06:07:53.320Z,7.27
2019-04-03T06:10:20.870Z,7.27
2019-04-03T06:12:48.182Z,7.70
2019-04-03T06:15:15.791Z,6.73
2019-04-03T06:17:43.326Z,8.07
2019-04-03T06:20:11.381Z,7.90
2019-04-03T06:22:38.894Z,7.33
2019-04-03T06:25:06.765Z,8.60
2019-04-03T06:27:34.377Z,7.83
2019-04-03T06:30:02.036Z,7.90
2019-04-03T06:32:29.922Z,7.50
2019-04-03T06:34:57.690Z,7.57
2019-04-03T06:37:25.131Z,8.97
2019-04-03T06:39:52.572Z,7.23
2019-04-03T06:42:20.097Z,7.97
2019-04-03T06:44:47.613Z,7.50
2019-04-03T06:47:15.019Z,7.17
2019-04-03T06:49:42.433Z,7.07
2019-04-03T06:52:10.010Z,8.10
2019-04-03T06:54:37.473Z,9.43
2019-04-03T06:57:04.995Z,7.50
2019-04-03T06:59:32.644Z,8.13
2019-04-03T07:02:00.262Z,7.60
2019-04-03T07:04:27.985Z,8.33
2019-04-03T07:06:56.539Z,7.93
2019-04-03T07:09:34.013Z,7.10
2019-04-03T07:11:53.566Z,8.17
2019-04-03T07:14:21.242Z,7.93
2019-04-03T07:16:48.735Z,9.60
2019-04-03T07:19:15.999Z,8.00
2019-04-03T07:21:43.460Z,8.10
2019-04-03T07:24:10.966Z,8.73
2019-04-03T07:26:38.401Z,7.50
2019-04-03T07:29:05.766Z,7.07
2019-04-03T07:31:33.268Z,9.57
2019-04-03T07:34:02.941Z,8.70
2019-04-03T07:36:30.065Z,8.27
2019-04-03T07:38:58.475Z,8.47
2019-04-03T07:41:26.337Z,8.40
2019-04-03T07:43:53.770Z,8.23
2019-04-03T07:46:21.199Z,9.20
2019-04-03T07:48:48.616Z,8.90
2019-04-03T07:51:16.124Z,8.83
2019-04-03T07:53:43.979Z,8.47
2019-04-03T07:56:11.490Z,8.33
2019-04-03T07:58:38.862Z,7.97
2019-04-03T08:01:09.440Z,8.57
2019-04-03T08:03:35.940Z,8.27
2019-04-03T08:06:04.461Z,8.00
2019-04-03T08:08:32.157Z,7.90
2019-04-03T08:11:01.669Z,8.13
2019-04-03T08:13:28.897Z,8.20
2019-04-03T08:15:56.291Z,7.53
2019-04-03T08:18:23.693Z,8.43
2019-04-03T08:20:51.201Z,7.90
2019-04-03T08:23:18.726Z,8.67
2019-04-03T08:25:48.425Z,8.10
2019-04-03T08:28:15.579Z,7.73
2019-04-03T08:30:43.002Z,8.30
2019-04-03T08:33:16.001Z,7.37
2019-04-03T08:35:39.581Z,8.03
2019-04-03T08:38:07.054Z,7.30
2019-04-03T08:40:34.502Z,8.07
2019-04-03T08:43:01.989Z,7.97
2019-04-03T08:45:29.390Z,6.70
2019-04-03T08:47:57.025Z,8.03
2019-04-03T08:50:24.454Z,8.00
2019-04-03T08:52:51.884Z,8.27
2019-04-03T08:55:23.417Z,8.17
2019-04-03T08:57:52.259Z,7.53
2019-04-03T09:00:20.693Z,8.23
2019-04-03T09:02:48.120Z,8.73
2019-04-03T09:05:18.988Z,8.53
2019-04-03T09:07:45.130Z,8.07
2019-04-03T09:10:14.751Z,7.17
2019-04-03T09:12:42.507Z,8.30
2019-04-03T09:15:10.516Z,8.00
2019-04-03T09:17:37.871Z,8.33
2019-04-03T09:20:24.919Z,7.67
2019-04-03T09:22:53.959Z,7.53
2019-04-03T09:25:21.502Z,8.10
2019-04-03T09:27:48.995Z,7.43
2019-04-03T09:30:16.716Z,7.07
2019-04-03T09:32:45.494Z,7.17
2019-04-03T09:35:14.025Z,7.50
2019-04-03T09:37:41.577Z,7.30
2019-04-03T09:40:08.942Z,7.50
2019-04-03T09:42:36.431Z,8.57
2019-04-03T09:45:06.681Z,8.43
2019-04-03T09:47:34.976Z,7.50
2019-04-03T09:50:05.458Z,7.20
2019-04-03T09:52:42.078Z,7.67
2019-04-03T09:55:02.250Z,7.58
2019-04-03T09:57:31.330Z,7.80
2019-04-03T09:59:59.181Z,7.45
2019-04-03T10:02:26.731Z,7.33
2019-04-03T10:04:55.587Z,7.42
2019-04-03T10:07:23.573Z,6.47
2019-04-03T10:09:53.765Z,6.70
2019-04-03T10:12:20.891Z,6.20
2019-04-03T10:14:51.041Z,6.47
2019-04-03T10:17:18.681Z,6.67
2019-04-03T10:19:46.336Z,5.92
2019-04-03T10:22:14.177Z,6.22
2019-04-03T10:24:41.828Z,6.05
2019-04-03T10:27:11.214Z,5.60
2019-04-03T10:29:38.347Z,5.30
2019-04-03T10:32:06.219Z,5.45
2019-04-03T10:34:35.732Z,6.22
2019-04-03T10:37:02.815Z,5.53
2019-04-03T10:39:30.190Z,6.00
2019-04-03T10:41:59.737Z,6.28
2019-04-03T10:44:28.833Z,5.72
2019-04-03T10:46:56.196Z,5.55
2019-04-03T10:49:23.828Z,5.80
2019-04-03T10:51:51.119Z,5.87
2019-04-03T10:54:18.425Z,5.53
2019-04-03T10:56:48.357Z,5.70
2019-04-03T10:59:18.127Z,5.40
2019-04-03T11:01:45.640Z,5.45
2019-04-03T11:04:13.181Z,5.78
2019-04-03T11:06:40.603Z,5.95
2019-04-03T11:09:09.129Z,5.95
2019-04-03T11:11:37.663Z,5.53
2019-04-03T11:14:07.532Z,5.03
2019-04-03T11:16:34.434Z,5.37
2019-04-03T11:19:05.549Z,4.75
2019-04-03T11:21:32.217Z,5.37
2019-04-03T11:23:59.651Z,4.97
2019-04-03T11:26:27.046Z,5.03
2019-04-03T11:28:54.505Z,5.20
2019-04-03T11:31:26.985Z,5.30
2019-04-03T11:33:51.551Z,6.87
2019-04-03T11:36:19.168Z,5.30
2019-04-03T11:38:46.710Z,4.23
2019-04-03T11:41:18.618Z,5.80
2019-04-03T11:43:43.560Z,4.47
2019-04-03T11:46:11.026Z,3.90
2019-04-03T11:48:38.344Z,3.97
2019-04-03T11:51:06.485Z,4.70
2019-04-03T11:53:35.567Z,4.33
2019-04-03T11:56:03.325Z,4.00
2019-04-03T11:58:30.935Z,4.07
2019-04-03T12:00:58.668Z,3.70
2019-04-03T12:03:26.699Z,4.17
2019-04-03T12:05:54.699Z,5.37
2019-04-03T12:08:22.212Z,4.50
2019-04-03T12:10:49.673Z,4.43
2019-04-03T12:13:17.128Z,4.60
2019-04-03T12:15:44.890Z,4.50
2019-04-03T12:18:12.257Z,4.03
2019-04-03T12:20:43.375Z,4.30
2019-04-03T12:23:09.325Z,4.63
2019-04-03T12:25:39.475Z,5.47
2019-04-03T12:28:07.342Z,4.27
2019-04-03T12:30:35.007Z,5.20
2019-04-03T12:33:02.406Z,4.40
2019-04-03T12:35:29.837Z,4.00
2019-04-03T12:37:57.405Z,3.70
2019-04-03T12:40:24.883Z,3.37
2019-04-03T12:42:52.398Z,3.70
2019-04-03T12:45:19.931Z,3.20
2019-04-03T12:47:47.733Z,3.50
2019-04-03T12:50:16.361Z,3.00
2019-04-03T12:52:44.876Z,3.30
2019-04-03T12:55:13.416Z,3.23
2019-04-03T12:57:40.947Z,3.30
2019-04-03T13:00:12.777Z,3.27
2019-04-03T13:02:41.257Z,4.20
2019-04-03T13:05:09.204Z,2.93
2019-04-03T13:07:37.425Z,3.40
2019-04-03T13:10:07.764Z,3.17
2019-04-03T13:12:35.839Z,3.20
2019-04-03T13:15:05.881Z,3.00
2019-04-03T13:17:33.774Z,3.07
2019-04-03T13:20:04.495Z,3.00
2019-04-03T13:22:30.813Z,3.90
2019-04-03T13:24:58.540Z,3.17
2019-04-03T13:27:25.983Z,2.70
2019-04-03T13:29:53.546Z,3.40
2019-04-03T13:32:23.135Z,2.70
2019-04-03T13:34:50.392Z,2.90
2019-04-03T13:37:17.906Z,2.70
2019-04-03T13:39:45.338Z,2.90
2019-04-03T13:42:13.894Z,3.77
2019-04-03T13:44:42.140Z,2.90
2019-04-03T13:47:11.002Z,2.70
2019-04-03T13:49:38.810Z,2.60
2019-04-03T13:52:08.983Z,2.87
2019-04-03T13:54:35.719Z,2.80
2019-04-03T13:57:03.178Z,2.80
2019-04-03T13:59:32.042Z,2.50
2019-04-03T14:02:01.220Z,2.70
2019-04-03T14:04:29.106Z,2.47
2019-04-03T14:06:56.766Z,2.93
2019-04-03T14:09:24.224Z,2.70
2019-04-03T14:11:51.670Z,2.80
2019-04-03T14:14:21.508Z,3.60
2019-04-03T14:19:45.852Z,2.77
2019-04-03T14:22:12.234Z,2.60
2019-04-03T14:24:44.926Z,3.80
2019-04-03T14:27:19.394Z,4.70
2019-04-03T14:29:41.002Z,2.67
2019-04-03T14:32:08.409Z,2.90
2019-04-03T14:34:39.743Z,3.83
2019-04-03T14:37:10.130Z,2.70
2019-04-03T14:39:40.192Z,3.47
2019-04-03T14:42:08.054Z,3.70
2019-04-03T14:44:35.629Z,3.20
2019-04-03T14:47:02.930Z,2.80
2019-04-03T14:49:31.651Z,2.80
2019-04-03T14:51:59.632Z,3.53
2019-04-03T14:54:27.169Z,3.70
2019-04-03T14:56:54.709Z,2.87
2019-04-03T14:59:22.807Z,3.00
2019-04-03T15:01:51.797Z,2.90
2019-04-03T15:04:19.852Z,3.00
2019-04-03T15:06:47.487Z,2.80
2019-04-03T15:09:15.726Z,3.57
2019-04-03T15:11:43.200Z,2.70
2019-04-03T15:14:10.719Z,3.00
2019-04-03T15:16:38.085Z,2.93
2019-04-03T15:19:05.525Z,2.70
2019-04-03T15:21:32.921Z,2.97
2019-04-03T15:24:00.452Z,3.17
2019-04-03T15:26:28.142Z,2.83
2019-04-03T15:28:55.687Z,3.00
2019-04-03T15:31:24.404Z,2.80
2019-04-03T15:33:54.262Z,2.80
2019-04-03T15:36:21.627Z,2.40
2019-04-03T15:38:49.866Z,2.80
2019-04-03T15:41:17.517Z,2.70
2019-04-03T15:44:01.481Z,2.77
2019-04-03T15:46:29.193Z,2.57
2019-04-03T15:48:56.551Z,2.87
2019-04-03T15:51:24.186Z,2.83
2019-04-03T15:53:52.803Z,2.83
2019-04-03T15:56:20.219Z,3.70
2019-04-03T15:58:48.635Z,2.87
2019-04-03T16:01:17.227Z,3.23
2019-04-03T16:03:44.741Z,2.87
2019-04-03T16:06:12.191Z,3.13
2019-04-03T16:08:39.732Z,3.00
2019-04-03T16:11:07.265Z,3.10
2019-04-03T16:13:34.963Z,3.00
2019-04-03T16:16:02.656Z,2.90
2019-04-03T16:18:30.688Z,2.97
2019-04-03T16:20:58.366Z,3.57
2019-04-03T16:23:26.290Z,3.10
2019-04-03T16:25:53.818Z,3.30
2019-04-03T16:28:21.727Z,3.20
2019-04-03T16:30:52.477Z,3.10
2019-04-03T16:33:22.982Z,2.80
2019-04-03T16:35:48.069Z,2.73
2019-04-03T16:38:16.014Z,2.90
2019-04-03T16:40:43.927Z,2.83
2019-04-03T16:43:12.829Z,2.97
2019-04-03T16:45:40.378Z,2.93
2019-04-03T16:48:07.858Z,2.80
2019-04-03T16:50:35.941Z,3.40
2019-04-03T16:53:05.629Z,3.03
2019-04-03T16:55:34.762Z,3.37
2019-04-03T16:58:02.226Z,2.70
2019-04-03T17:00:29.852Z,2.90
2019-04-03T17:02:57.598Z,3.00
2019-04-03T17:05:25.582Z,2.80
2019-04-03T17:07:54.880Z,3.20
2019-04-03T17:10:23.266Z,3.43
2019-04-03T17:12:50.853Z,4.30
2019-04-03T17:15:19.351Z,3.80
2019-04-03T17:17:47.527Z,3.73
2019-04-03T17:20:17.241Z,3.40
2019-04-03T17:22:46.619Z,3.43
2019-04-03T17:25:16.610Z,3.17
2019-04-03T17:27:54.188Z,3.40
2019-04-03T17:30:13.789Z,4.90
2019-04-03T17:32:41.377Z,3.70
2019-04-03T17:35:09.021Z,3.00
2019-04-03T17:37:36.800Z,3.23
2019-04-03T17:40:06.623Z,3.10
2019-04-03T17:42:34.652Z,3.10
2019-04-03T17:45:04.712Z,3.07
2019-04-03T17:47:32.308Z,3.50
2019-04-03T17:49:59.924Z,3.30
2019-04-03T17:52:27.530Z,3.00
2019-04-03T17:54:55.059Z,3.10
2019-04-03T17:57:22.526Z,3.00
2019-04-03T17:59:49.833Z,3.27
2019-04-03T18:02:17.195Z,3.23
2019-04-03T18:04:44.772Z,3.13
2019-04-03T18:07:12.326Z,3.13
2019-04-03T18:09:41.940Z,3.10
2019-04-03T18:12:09.027Z,3.00
2019-04-03T18:14:36.583Z,3.17
2019-04-03T18:17:04.249Z,3.10
2019-04-03T18:19:37.359Z,3.40
2019-04-03T18:22:00.868Z,3.40
2019-04-03T18:24:28.315Z,3.20
2019-04-03T18:26:55.824Z,3.60
2019-04-03T18:29:24.503Z,3.20
2019-04-03T18:31:52.089Z,3.67
2019-04-03T18:34:20.252Z,3.30
2019-04-03T18:36:47.936Z,2.90
2019-04-03T18:39:15.662Z,3.30
2019-04-03T18:41:49.747Z,3.30
2019-04-03T18:44:22.402Z,3.00
2019-04-03T18:46:50.057Z,3.20
2019-04-03T18:49:16.405Z,3.30
2019-04-03T18:51:43.935Z,3.20
2019-04-03T18:54:12.169Z,3.10
2019-04-03T18:56:39.681Z,3.17
2019-04-03T18:59:07.171Z,3.10
2019-04-03T19:01:34.584Z,3.20
2019-04-03T19:04:02.477Z,3.33
2019-04-03T19:06:30.593Z,3.40
2019-04-03T19:09:09.335Z,3.27
2019-04-03T19:12:07.913Z,3.40
2019-04-03T19:14:31.214Z,3.00
2019-04-03T19:16:56.501Z,3.50
2019-04-03T19:19:24.865Z,3.30
2019-04-03T19:21:54.623Z,3.20
2019-04-03T19:24:24.453Z,3.27
2019-04-03T19:26:52.005Z,3.50
2019-04-03T19:29:19.467Z,3.10
2019-04-03T19:31:46.944Z,3.20
2019-04-03T19:34:19.514Z,3.67
2019-04-03T19:36:43.824Z,3.60
2019-04-03T19:39:11.344Z,3.60
2019-04-03T19:41:38.693Z,3.30
2019-04-03T19:44:06.492Z,3.10
2019-04-03T19:46:36.385Z,3.40
2019-04-03T19:49:03.818Z,3.13
2019-04-03T19:51:31.422Z,3.30
2019-04-03T19:53:59.948Z,2.90
2019-04-03T19:56:27.804Z,3.10
2019-04-03T19:58:55.247Z,3.70
2019-04-03T20:01:29.499Z,5.30
2019-04-03T20:03:57.249Z,4.83
2019-04-03T20:06:24.672Z,5.60
2019-04-03T20:08:52.057Z,6.50
2019-04-03T20:11:19.562Z,9.13
2019-04-03T20:13:46.998Z,5.90
2019-04-03T20:16:14.634Z,5.30
2019-04-03T20:18:42.256Z,5.80
2019-04-03T20:21:15.096Z,6.93
2019-04-03T20:23:41.881Z,5.53
2019-04-03T20:26:10.291Z,5.93
2019-04-03T20:28:38.107Z,5.40
2019-04-03T20:31:06.148Z,5.17
2019-04-03T20:37:04.907Z,5.07
2019-04-03T20:39:33.901Z,5.43
2019-04-03T20:42:16.068Z,5.63
2019-04-03T20:44:44.096Z,5.27
2019-04-03T20:47:11.627Z,5.47
2019-04-03T20:49:39.435Z,5.40
2019-04-03T20:52:11.477Z,5.97
2019-04-03T20:54:39.053Z,5.57
2019-04-03T20:57:06.817Z,5.33
2019-04-03T20:59:34.280Z,5.30
2019-04-03T21:02:03.040Z,5.47
2019-04-03T21:04:30.745Z,5.43
2019-04-03T21:06:58.362Z,5.13
2019-04-03T21:09:25.947Z,5.40
2019-04-03T21:14:41.553Z,4.97
2019-04-03T21:17:09.568Z,5.20
2019-04-03T21:19:37.477Z,5.67
2019-04-03T21:22:05.904Z,5.30
2019-04-03T21:24:34.981Z,5.10
2019-04-03T21:27:02.795Z,5.33
2019-04-03T21:29:30.381Z,5.13
2019-04-03T21:31:57.932Z,5.10
2019-04-03T21:34:25.469Z,5.17
2019-04-03T21:36:53.159Z,5.10
2019-04-03T21:39:20.999Z,5.00
2019-04-03T21:41:48.557Z,5.20
2019-04-03T21:44:16.025Z,5.30
2019-04-03T21:46:43.420Z,5.03
2019-04-03T21:49:12.305Z,5.03
2019-04-03T21:51:40.125Z,4.80
2019-04-03T21:54:07.749Z,4.70
2019-04-03T21:56:36.049Z,4.10
2019-04-03T21:59:03.585Z,4.30
2019-04-03T22:01:31.320Z,4.43
2019-04-03T22:03:59.807Z,4.77
2019-04-03T22:06:27.849Z,4.57
2019-04-03T22:08:55.460Z,4.20
2019-04-03T22:11:23.109Z,4.50
2019-04-03T22:13:51.750Z,4.73
2019-04-03T22:16:20.330Z,4.57
2019-04-03T22:18:47.892Z,4.67
2019-04-03T22:21:15.361Z,4.20
2019-04-03T22:23:42.985Z,3.87
2019-04-03T22:26:10.577Z,4.17
2019-04-03T22:28:38.228Z,4.43
2019-04-03T22:31:05.777Z,4.87
2019-04-03T22:33:33.375Z,4.03
2019-04-03T22:36:01.273Z,3.93
2019-04-03T22:38:30.211Z,4.50
2019-04-03T22:40:57.618Z,4.40
2019-04-03T22:43:25.159Z,4.30
2019-04-03T22:45:52.524Z,4.20
2019-04-03T22:48:19.866Z,4.37
2019-04-03T22:50:47.240Z,4.13
2019-04-03T22:53:14.692Z,4.10
2019-04-03T22:55:42.255Z,3.67
2019-04-03T22:58:09.831Z,4.30
2019-04-03T23:00:37.319Z,3.93
2019-04-03T23:03:26.422Z,4.20
2019-04-03T23:05:54.138Z,4.00
2019-04-03T23:08:22.779Z,3.53
2019-04-03T23:10:51.031Z,3.90
2019-04-03T23:13:18.627Z,3.93
2019-04-03T23:15:46.152Z,4.00
2019-04-03T23:18:14.003Z,4.03
2019-04-03T23:20:43.058Z,4.20
2019-04-03T23:23:10.546Z,4.00
2019-04-03T23:25:38.070Z,4.20
2019-04-03T23:28:05.583Z,4.23
2019-04-03T23:30:33.097Z,4.50
2019-04-03T23:33:00.478Z,4.17
2019-04-03T23:35:27.888Z,4.00
2019-04-03T23:37:55.814Z,3.90
2019-04-03T23:40:23.849Z,3.97
2019-04-03T23:42:51.297Z,4.03
2019-04-03T23:45:19.466Z,3.57
2019-04-03T23:47:47.499Z,3.83
2019-04-03T23:50:15.171Z,3.60
2019-04-03T23:52:42.654Z,3.70
2019-04-03T23:55:10.169Z,3.90
2019-04-03T23:57:39.684Z,3.67
